x

Tillamook, Or - 85 Nm Wnw Of Tillamook, Or (46089) Wave Buoy

6:50am - Mon 26th Sep 2016 All times are PDT. -7 hours from GMT.

  • Sig Wave height 5.6ft
  • Swell Direction
  • Peak Period 10s
  • Average Period 7s
  • Wind
    18mph, 20mph gusts
  • Sea Temp 63°f
  • Air Temp 60°f
  • Sea Pressure 1019.2mb
  • Tillamook, Or - 85 Nm Wnw Of Tillamook, Or
  • Tillamook, Or - 85 Nm Wnw Of Tillamook, Or

More Historic Weather Station data

Upgrade to MSW Pro to gain access to the past 30 days of data for over 8000 Wavebouys and Weather Stations around the globe.

Join Pro

Comparision Forecast

View Surf forecast
   
Mon 09/26 6:50am 5.5ft 10s 7s 18 20 mph 1019.2mb 63f 60f
5:50am 5ft 10s 6s 16 18 mph 1019.3mb 63f 60f
4:50am 5.5ft 10s 7s 13 18 mph 1019.5mb 63f 60f
3:50am 6ft 10s 7s 13 16 mph 1019.8mb 63f 60f
2:50am 6ft 10s 7s 16 18 mph 1020.6mb 63f 60f
1:50am 6ft 10s 7s 16
mph
1021.4mb 63f 60f
12:50am 6ft 10s 7s 13 18 mph 1021.8mb 63f 61f
Sun 09/25 11:50pm 6.5ft 10s 7s 16 18 mph 1021.9mb 63f 61f
10:50pm 6.5ft 10s 8s 16 18 mph 1022.6mb 63f 61f
9:50pm 6.5ft 10s 8s 13 18 mph 1023mb 63f 63f
8:50pm 5.5ft 11s 8s 13 16 mph 1023.2mb 64f 63f
7:50pm 6ft 10s 8s 13 16 mph 1023.4mb 64f 63f
6:50pm 5.5ft 9s 8s 11 13 mph 1023.9mb 64f 63f
5:50pm 5ft 10s 8s 11 13 mph 1024.6mb 64f 63f
4:50pm 5ft 11s 9s 9 11 mph 1025.5mb 64f 63f
3:50pm 6ft 17s 9s 7 9 mph 1026mb 64f 63f
2:50pm 5.5ft 10s 8s 7 9 mph 1026.7mb 64f 63f
1:50pm 5.5ft 9s 8s 4 7 mph 1027.3mb 63f 63f
12:50pm 6.5ft 10s 8s 7
mph
1027.7mb 63f 63f
11:50am 5.5ft 8s 7s 4
mph
1028mb 63f 63f
10:50am 6.5ft 17s 8s 4 7 mph 1028mb 63f 63f
9:50am 7ft 10s 7s 2 4 mph 1027.8mb 63f 63f
8:50am 7.5ft 10s 7s 2 4 mph 1027.7mb 63f 63f
7:50am 7ft 10s 7s 4 7 mph 1027.5mb 63f 63f
6:50am 7ft 9s 8s 7 9 mph 1027.3mb 63f 62f
5:50am 6ft 17s 8s 9
mph
1027.1mb 63f 63f
4:50am 6ft 11s 8s 9 11 mph 1027.3mb 63f 63f
3:50am 5ft 10s 8s 9 11 mph 1027.3mb 63f 62f
2:50am 5.5ft 11s 8s 9
mph
1027.6mb 63f 62f
1:50am 5ft 17s 8s 9 11 mph 1027.8mb 63f 63f
12:50am 5ft 17s 9s 11
mph
1027.8mb 63f 63f
Sat 09/24 11:50pm 4.5ft 11s 8s 9 11 mph 1028mb 63f 62f
10:50pm 5.5ft 11s 8s 11
mph
1027.8mb 63f 62f
9:50pm 5ft 11s 8s 9 11 mph 1027.6mb 63f 62f
8:50pm 6ft 17s 8s 9 11 mph 1027.2mb 63f 62f
7:50pm 6ft 10s 8s 11 13 mph 1026.3mb 63f 61f
6:50pm 6.5ft 10s 8s 9 11 mph 1026.3mb 63f 61f
5:50pm 6.5ft 11s 8s 9 11 mph 1026.3mb 63f 61f
4:50pm 7ft 10s 8s 9 11 mph 1027mb 63f 61f
3:50pm 7.5ft 10s 8s 11 13 mph 1027mb 63f 61f
2:50pm 7ft 11s 8s 9 11 mph 1027.4mb 63f 61f
1:50pm 7ft 11s 8s 9 11 mph 1027.8mb 63f 61f
12:50pm 7ft 11s 8s 9 11 mph 1028mb 63f 61f
11:50am 7.5ft 11s 9s 9 13 mph 1027.6mb 63f 61f
10:50am 8ft 11s 9s 9 11 mph 1027.7mb 63f 61f
9:50am 8ft 11s 8s 7 9 mph 1027.7mb 63f 61f
8:50am 8.5ft 12s 8s 4 7 mph 1027.4mb 62f 62f
7:50am 9ft 11s 8s 4 7 mph 1026.6mb 62f 61f
6:50am 8ft 11s 8s 2 4 mph 1026.4mb 62f 60f
5:50am 9ft 12s 8s  -  2 mph 1026.1mb 62f 61f
4:50am 9ft 11s 8s  -  2 mph 1026mb 62f 61f
3:50am 9ft 11s 8s  -  2 mph 1025.9mb 62f 61f
2:50am 10ft 11s 8s  -  4 mph 1025.9mb 62f 61f
1:50am 10ft 12s 8s 4 7 mph 1026mb 62f 61f
12:50am 10ft 12s 8s 7 9 mph 1026mb 62f 61f
Fri 09/23 11:50pm 11ft 12s 8s 7 9 mph 1024.7mb 62f 61f
10:50pm 10.5ft 11s 8s 9 11 mph 1024.7mb 63f 61f
9:50pm 11ft 11s 8s 9 13 mph 1024.1mb 63f 62f
8:50pm 12.5ft 11s 8s 11 13 mph 1023.8mb 63f 62f
7:50pm 11ft 12s 8s 13 18 mph 1022.6mb 63f 62f
6:50pm 12ft 11s 8s 13 18 mph 1021.7mb 63f 62f
5:50pm 10.5ft 11s 8s 16 18 mph 1021mb 63f 62f
4:50pm 11ft 11s 8s 13 18 mph 1020.3mb 63f 62f
3:50pm 10ft 13s 8s 16 20 mph 1019.7mb 63f 62f
2:50pm 11ft 12s 8s 16 18 mph 1018.9mb 63f 62f
1:50pm 10.5ft 11s 8s 16 20 mph 1018.2mb 63f 62f
12:50pm 11ft 11s 8s 18 20 mph 1017.5mb 63f 62f
10:50am 11ft 11s 7s 20 22 mph 1015.4mb 62f 62f
9:50am 11.5ft 11s 7s 18 20 mph 1014.2mb 62f 62f
8:50am 12ft 9s 7s 18 25 mph 1013.1mb 62f 62f
7:50am 12ft 8s 6s 18 25 mph 1012mb 62f 62f
5:50am 9.5ft 7s 6s 29 36 mph 1011.5mb 63f 61f
4:50am 8ft 6s 6s 29 36 mph 1012.2mb 63f 60f
3:50am 7.5ft 6s 5s 29 36 mph 1013mb 63f 61f
2:50am 5.5ft 6s 5s 27 34 mph 1014mb 63f 62f
1:50am 4.5ft 5s 5s 27 31 mph 1014.6mb 63f 62f
12:50am 4.5ft 4s 5s 25 29 mph 1015.5mb 63f 62f
Thu 09/22 11:50pm 3.5ft 7s 4s 22 29 mph 1016mb 63f 62f
10:50pm 3.5ft 7s 5s 22 25 mph 1016.4mb 63f 62f
9:50pm 3.5ft 6s 5s 18 20 mph 1017.4mb 63f 62f
8:50pm 3.5ft 8s 5s 16 18 mph 1018.2mb 63f 62f
7:50pm 3.5ft 8s 6s 13 16 mph 1018.6mb 63f 61f
6:50pm 4ft 6s 6s 11 13 mph 1018.4mb 63f 61f
5:50pm 4ft 8s 6s 9 11 mph 1019.1mb 63f 61f
4:50pm 4.5ft 8s 6s 7 9 mph 1019mb 63f 61f
3:50pm 4.5ft 9s 6s 7
mph
1019.2mb 64f 61f